sensor_id;sensor_type;location;lat;lon;timestamp;temperature;humidity
20568;DHT22;10442;49.932;11.592;2022-12-24T00:01:20;12.90;80.70
20568;DHT22;10442;49.932;11.592;2022-12-24T00:03:48;12.90;80.50
20568;DHT22;10442;49.932;11.592;2022-12-24T00:06:19;12.90;80.60
20568;DHT22;10442;49.932;11.592;2022-12-24T00:08:47;12.90;80.40
20568;DHT22;10442;49.932;11.592;2022-12-24T00:11:14;12.90;80.30
20568;DHT22;10442;49.932;11.592;2022-12-24T00:13:42;12.90;80.10
20568;DHT22;10442;49.932;11.592;2022-12-24T00:16:10;12.90;80.20
20568;DHT22;10442;49.932;11.592;2022-12-24T00:18:38;12.90;79.80
20568;DHT22;10442;49.932;11.592;2022-12-24T00:21:14;12.90;79.90
20568;DHT22;10442;49.932;11.592;2022-12-24T00:23:42;12.90;79.90
20568;DHT22;10442;49.932;11.592;2022-12-24T00:26:11;12.80;79.70
20568;DHT22;10442;49.932;11.592;2022-12-24T00:28:39;12.80;80.40
20568;DHT22;10442;49.932;11.592;2022-12-24T00:31:09;12.80;79.70
20568;DHT22;10442;49.932;11.592;2022-12-24T00:33:36;12.80;79.60
20568;DHT22;10442;49.932;11.592;2022-12-24T00:36:05;12.80;79.70
20568;DHT22;10442;49.932;11.592;2022-12-24T00:38:32;12.80;79.60
20568;DHT22;10442;49.932;11.592;2022-12-24T00:41:01;12.70;79.50
20568;DHT22;10442;49.932;11.592;2022-12-24T00:43:30;12.70;79.50
20568;DHT22;10442;49.932;11.592;2022-12-24T00:45:58;12.70;79.30
20568;DHT22;10442;49.932;11.592;2022-12-24T00:48:26;12.70;79.60
20568;DHT22;10442;49.932;11.592;2022-12-24T00:50:54;12.70;79.60
20568;DHT22;10442;49.932;11.592;2022-12-24T00:53:21;12.70;79.40
20568;DHT22;10442;49.932;11.592;2022-12-24T00:55:49;12.70;79.40
20568;DHT22;10442;49.932;11.592;2022-12-24T00:58:16;12.70;79.40
20568;DHT22;10442;49.932;11.592;2022-12-24T01:00:44;12.70;79.30
20568;DHT22;10442;49.932;11.592;2022-12-24T01:03:11;12.70;79.30
20568;DHT22;10442;49.932;11.592;2022-12-24T01:05:39;12.70;79.30
20568;DHT22;10442;49.932;11.592;2022-12-24T01:08:06;12.70;79.20
20568;DHT22;10442;49.932;11.592;2022-12-24T01:10:34;12.60;79.10
20568;DHT22;10442;49.932;11.592;2022-12-24T01:13:02;12.60;79.20
20568;DHT22;10442;49.932;11.592;2022-12-24T01:15:29;12.60;79.30
20568;DHT22;10442;49.932;11.592;2022-12-24T01:17:57;12.60;79.10
20568;DHT22;10442;49.932;11.592;2022-12-24T01:20:25;12.60;79.10
20568;DHT22;10442;49.932;11.592;2022-12-24T01:22:57;12.50;78.80
20568;DHT22;10442;49.932;11.592;2022-12-24T01:25:25;12.50;78.90
20568;DHT22;10442;49.932;11.592;2022-12-24T01:27:52;12.60;79.00
20568;DHT22;10442;49.932;11.592;2022-12-24T01:30:19;12.60;79.00
20568;DHT22;10442;49.932;11.592;2022-12-24T01:32:47;12.60;79.00
20568;DHT22;10442;49.932;11.592;2022-12-24T01:35:14;12.50;78.90
20568;DHT22;10442;49.932;11.592;2022-12-24T01:37:42;12.50;78.90
20568;DHT22;10442;49.932;11.592;2022-12-24T01:40:14;12.50;78.60
20568;DHT22;10442;49.932;11.592;2022-12-24T01:43:00;12.50;78.30
20568;DHT22;10442;49.932;11.592;2022-12-24T01:45:53;12.50;78.50
20568;DHT22;10442;49.932;11.592;2022-12-24T01:48:43;12.40;78.40
20568;DHT22;10442;49.932;11.592;2022-12-24T01:51:36;12.40;78.50
20568;DHT22;10442;49.932;11.592;2022-12-24T01:56:44;12.40;78.30
20568;DHT22;10442;49.932;11.592;2022-12-24T01:59:15;12.40;78.20
20568;DHT22;10442;49.932;11.592;2022-12-24T02:01:48;12.40;78.00
20568;DHT22;10442;49.932;11.592;2022-12-24T02:04:42;12.40;78.10
20568;DHT22;10442;49.932;11.592;2022-12-24T02:07:11;12.40;77.90
20568;DHT22;10442;49.932;11.592;2022-12-24T02:09:39;12.40;78.10
20568;DHT22;10442;49.932;11.592;2022-12-24T02:12:06;12.40;78.10
20568;DHT22;10442;49.932;11.592;2022-12-24T02:14:35;12.40;78.20
20568;DHT22;10442;49.932;11.592;2022-12-24T02:22:55;12.40;77.80
20568;DHT22;10442;49.932;11.592;2022-12-24T02:31:23;12.40;77.50
20568;DHT22;10442;49.932;11.592;2022-12-24T02:33:58;12.40;77.40
20568;DHT22;10442;49.932;11.592;2022-12-24T02:36:34;12.40;77.40
20568;DHT22;10442;49.932;11.592;2022-12-24T02:39:13;12.30;77.40
20568;DHT22;10442;49.932;11.592;2022-12-24T02:41:50;12.30;77.10
20568;DHT22;10442;49.932;11.592;2022-12-24T02:44:52;12.30;77.20
20568;DHT22;10442;49.932;11.592;2022-12-24T02:47:24;12.30;76.90
20568;DHT22;10442;49.932;11.592;2022-12-24T02:49:52;12.40;77.20
20568;DHT22;10442;49.932;11.592;2022-12-24T02:52:31;12.30;77.10
20568;DHT22;10442;49.932;11.592;2022-12-24T02:55:04;12.30;77.30
20568;DHT22;10442;49.932;11.592;2022-12-24T02:57:50;12.30;77.60
20568;DHT22;10442;49.932;11.592;2022-12-24T03:00:21;12.30;77.50
20568;DHT22;10442;49.932;11.592;2022-12-24T03:06:00;12.30;77.90
20568;DHT22;10442;49.932;11.592;2022-12-24T03:08:50;12.30;77.80
20568;DHT22;10442;49.932;11.592;2022-12-24T03:11:21;12.30;77.90
20568;DHT22;10442;49.932;11.592;2022-12-24T03:13:50;12.30;78.20
20568;DHT22;10442;49.932;11.592;2022-12-24T03:16:22;12.30;78.30
20568;DHT22;10442;49.932;11.592;2022-12-24T03:18:52;12.30;78.20
20568;DHT22;10442;49.932;11.592;2022-12-24T03:21:30;12.30;78.30
20568;DHT22;10442;49.932;11.592;2022-12-24T03:23:58;12.30;78.30
20568;DHT22;10442;49.932;11.592;2022-12-24T03:26:28;12.30;78.30
20568;DHT22;10442;49.932;11.592;2022-12-24T03:28:55;12.20;78.20
20568;DHT22;10442;49.932;11.592;2022-12-24T03:31:23;12.20;78.20
20568;DHT22;10442;49.932;11.592;2022-12-24T03:33:51;12.20;78.20
20568;DHT22;10442;49.932;11.592;2022-12-24T03:36:18;12.20;77.90
20568;DHT22;10442;49.932;11.592;2022-12-24T03:38:45;12.20;78.10
20568;DHT22;10442;49.932;11.592;2022-12-24T03:41:12;12.10;77.70
20568;DHT22;10442;49.932;11.592;2022-12-24T03:43:39;12.10;77.90
20568;DHT22;10442;49.932;11.592;2022-12-24T03:46:07;12.10;77.80
20568;DHT22;10442;49.932;11.592;2022-12-24T03:48:35;12.10;77.90
20568;DHT22;10442;49.932;11.592;2022-12-24T03:51:03;12.10;78.00
20568;DHT22;10442;49.932;11.592;2022-12-24T03:53:31;12.10;77.80
20568;DHT22;10442;49.932;11.592;2022-12-24T03:55:58;12.10;77.70
20568;DHT22;10442;49.932;11.592;2022-12-24T03:58:26;12.10;77.60
20568;DHT22;10442;49.932;11.592;2022-12-24T04:00:53;12.10;77.50
20568;DHT22;10442;49.932;11.592;2022-12-24T04:03:21;12.10;77.00
20568;DHT22;10442;49.932;11.592;2022-12-24T04:06:02;12.10;77.00
20568;DHT22;10442;49.932;11.592;2022-12-24T04:08:30;12.00;76.80
20568;DHT22;10442;49.932;11.592;2022-12-24T04:10:57;12.00;77.00
20568;DHT22;10442;49.932;11.592;2022-12-24T04:13:31;12.00;76.30
20568;DHT22;10442;49.932;11.592;2022-12-24T04:15:59;12.00;76.40
20568;DHT22;10442;49.932;11.592;2022-12-24T04:18:28;12.00;76.40
20568;DHT22;10442;49.932;11.592;2022-12-24T04:20:56;12.00;76.20
20568;DHT22;10442;49.932;11.592;2022-12-24T04:23:24;12.00;76.20
20568;DHT22;10442;49.932;11.592;2022-12-24T04:25:51;11.90;75.80
20568;DHT22;10442;49.932;11.592;2022-12-24T04:28:19;11.90;75.90
20568;DHT22;10442;49.932;11.592;2022-12-24T04:30:46;11.90;75.80
20568;DHT22;10442;49.932;11.592;2022-12-24T04:33:14;11.90;75.90
20568;DHT22;10442;49.932;11.592;2022-12-24T04:35:41;11.90;75.90
20568;DHT22;10442;49.932;11.592;2022-12-24T04:38:09;11.90;75.80
20568;DHT22;10442;49.932;11.592;2022-12-24T04:40:36;11.90;75.60
20568;DHT22;10442;49.932;11.592;2022-12-24T04:43:03;12.00;75.90
20568;DHT22;10442;49.932;11.592;2022-12-24T04:45:31;12.00;75.70
20568;DHT22;10442;49.932;11.592;2022-12-24T04:47:59;11.90;75.50
20568;DHT22;10442;49.932;11.592;2022-12-24T04:50:26;11.90;75.60
20568;DHT22;10442;49.932;11.592;2022-12-24T04:52:54;11.90;75.50
20568;DHT22;10442;49.932;11.592;2022-12-24T04:55:21;11.80;75.40
20568;DHT22;10442;49.932;11.592;2022-12-24T04:57:49;11.80;75.20
20568;DHT22;10442;49.932;11.592;2022-12-24T05:00:19;11.70;75.30
20568;DHT22;10442;49.932;11.592;2022-12-24T05:02:47;11.70;75.30
20568;DHT22;10442;49.932;11.592;2022-12-24T05:05:14;11.70;75.50
20568;DHT22;10442;49.932;11.592;2022-12-24T05:07:42;11.60;75.60
20568;DHT22;10442;49.932;11.592;2022-12-24T05:10:09;11.60;75.70
20568;DHT22;10442;49.932;11.592;2022-12-24T05:12:37;11.60;75.60
20568;DHT22;10442;49.932;11.592;2022-12-24T05:15:04;11.60;75.60
20568;DHT22;10442;49.932;11.592;2022-12-24T05:17:32;11.60;75.50
20568;DHT22;10442;49.932;11.592;2022-12-24T05:19:59;11.70;75.70
20568;DHT22;10442;49.932;11.592;2022-12-24T05:22:27;11.70;75.70
20568;DHT22;10442;49.932;11.592;2022-12-24T05:25:13;11.70;75.60
20568;DHT22;10442;49.932;11.592;2022-12-24T05:27:59;11.70;75.60
20568;DHT22;10442;49.932;11.592;2022-12-24T05:30:26;11.70;75.50
20568;DHT22;10442;49.932;11.592;2022-12-24T05:32:54;11.80;75.60
20568;DHT22;10442;49.932;11.592;2022-12-24T05:35:21;11.80;75.50
20568;DHT22;10442;49.932;11.592;2022-12-24T05:37:48;11.80;75.60
20568;DHT22;10442;49.932;11.592;2022-12-24T05:40:16;11.80;75.60
20568;DHT22;10442;49.932;11.592;2022-12-24T05:42:43;11.80;75.70
20568;DHT22;10442;49.932;11.592;2022-12-24T05:45:11;11.80;75.80
20568;DHT22;10442;49.932;11.592;2022-12-24T05:47:38;11.80;75.60
20568;DHT22;10442;49.932;11.592;2022-12-24T05:50:10;11.80;75.70
20568;DHT22;10442;49.932;11.592;2022-12-24T05:52:39;11.80;75.80
20568;DHT22;10442;49.932;11.592;2022-12-24T05:55:07;11.80;75.80
20568;DHT22;10442;49.932;11.592;2022-12-24T05:57:35;11.80;75.80
20568;DHT22;10442;49.932;11.592;2022-12-24T06:00:03;11.80;75.80
20568;DHT22;10442;49.932;11.592;2022-12-24T06:02:38;11.80;75.90
20568;DHT22;10442;49.932;11.592;2022-12-24T06:05:05;11.80;75.90
20568;DHT22;10442;49.932;11.592;2022-12-24T06:07:33;11.80;75.80
20568;DHT22;10442;49.932;11.592;2022-12-24T06:10:01;11.80;75.90
20568;DHT22;10442;49.932;11.592;2022-12-24T06:12:28;11.90;76.10
20568;DHT22;10442;49.932;11.592;2022-12-24T06:14:55;11.90;76.00
20568;DHT22;10442;49.932;11.592;2022-12-24T06:17:23;11.90;76.00
20568;DHT22;10442;49.932;11.592;2022-12-24T06:19:50;11.90;76.00
20568;DHT22;10442;49.932;11.592;2022-12-24T06:22:17;11.90;75.90
20568;DHT22;10442;49.932;11.592;2022-12-24T06:24:44;11.80;75.80
20568;DHT22;10442;49.932;11.592;2022-12-24T06:27:12;11.80;75.70
20568;DHT22;10442;49.932;11.592;2022-12-24T06:29:39;11.80;75.60
20568;DHT22;10442;49.932;11.592;2022-12-24T06:32:06;11.80;75.60
20568;DHT22;10442;49.932;11.592;2022-12-24T06:34:34;11.80;75.70
20568;DHT22;10442;49.932;11.592;2022-12-24T06:37:01;11.80;75.60
20568;DHT22;10442;49.932;11.592;2022-12-24T06:39:29;11.80;75.70
20568;DHT22;10442;49.932;11.592;2022-12-24T06:41:56;11.70;75.70
20568;DHT22;10442;49.932;11.592;2022-12-24T06:44:24;11.80;75.80
20568;DHT22;10442;49.932;11.592;2022-12-24T06:46:51;11.80;75.70
20568;DHT22;10442;49.932;11.592;2022-12-24T06:49:19;11.70;75.60
20568;DHT22;10442;49.932;11.592;2022-12-24T06:51:46;11.70;75.70
20568;DHT22;10442;49.932;11.592;2022-12-24T06:54:13;11.70;75.70
20568;DHT22;10442;49.932;11.592;2022-12-24T06:56:40;11.70;75.70
20568;DHT22;10442;49.932;11.592;2022-12-24T06:59:08;11.70;75.80
20568;DHT22;10442;49.932;11.592;2022-12-24T07:01:35;11.70;76.00
20568;DHT22;10442;49.932;11.592;2022-12-24T07:04:02;11.70;76.10
20568;DHT22;10442;49.932;11.592;2022-12-24T07:06:30;11.70;76.30
20568;DHT22;10442;49.932;11.592;2022-12-24T07:08:58;11.70;76.30
20568;DHT22;10442;49.932;11.592;2022-12-24T07:11:26;11.70;76.40
20568;DHT22;10442;49.932;11.592;2022-12-24T07:13:53;11.60;76.40
20568;DHT22;10442;49.932;11.592;2022-12-24T07:16:21;11.70;76.70
20568;DHT22;10442;49.932;11.592;2022-12-24T07:18:48;11.70;76.90
20568;DHT22;10442;49.932;11.592;2022-12-24T07:21:16;11.70;77.00
20568;DHT22;10442;49.932;11.592;2022-12-24T07:23:43;11.70;77.10
20568;DHT22;10442;49.932;11.592;2022-12-24T07:26:11;11.70;77.20
20568;DHT22;10442;49.932;11.592;2022-12-24T07:28:38;11.70;78.00
20568;DHT22;10442;49.932;11.592;2022-12-24T07:31:06;11.70;77.30
20568;DHT22;10442;49.932;11.592;2022-12-24T07:33:33;11.70;77.30
20568;DHT22;10442;49.932;11.592;2022-12-24T07:36:03;11.70;77.50
20568;DHT22;10442;49.932;11.592;2022-12-24T07:38:31;11.70;77.40
20568;DHT22;10442;49.932;11.592;2022-12-24T07:40:59;11.70;77.40
20568;DHT22;10442;49.932;11.592;2022-12-24T07:43:27;11.70;77.40
20568;DHT22;10442;49.932;11.592;2022-12-24T07:45:56;11.70;77.40
20568;DHT22;10442;49.932;11.592;2022-12-24T07:48:26;11.70;77.40
20568;DHT22;10442;49.932;11.592;2022-12-24T07:50:54;11.70;77.30
20568;DHT22;10442;49.932;11.592;2022-12-24T07:53:23;11.70;77.30
20568;DHT22;10442;49.932;11.592;2022-12-24T07:55:51;11.70;77.30
20568;DHT22;10442;49.932;11.592;2022-12-24T07:58:19;11.70;77.30
20568;DHT22;10442;49.932;11.592;2022-12-24T08:00:47;11.70;77.20
20568;DHT22;10442;49.932;11.592;2022-12-24T08:03:17;11.80;77.20
20568;DHT22;10442;49.932;11.592;2022-12-24T08:05:46;11.80;77.10
20568;DHT22;10442;49.932;11.592;2022-12-24T08:08:14;11.80;77.10
20568;DHT22;10442;49.932;11.592;2022-12-24T08:10:43;11.80;77.20
20568;DHT22;10442;49.932;11.592;2022-12-24T08:13:12;11.80;77.20
20568;DHT22;10442;49.932;11.592;2022-12-24T08:15:40;11.90;77.30
20568;DHT22;10442;49.932;11.592;2022-12-24T08:18:08;11.90;77.30
20568;DHT22;10442;49.932;11.592;2022-12-24T08:20:38;11.90;77.20
20568;DHT22;10442;49.932;11.592;2022-12-24T08:23:07;11.90;77.20
20568;DHT22;10442;49.932;11.592;2022-12-24T08:25:35;11.90;77.20
20568;DHT22;10442;49.932;11.592;2022-12-24T08:28:04;11.90;77.20
20568;DHT22;10442;49.932;11.592;2022-12-24T08:30:32;11.90;77.00
20568;DHT22;10442;49.932;11.592;2022-12-24T08:32:59;11.90;76.90
20568;DHT22;10442;49.932;11.592;2022-12-24T08:35:28;11.90;76.90
20568;DHT22;10442;49.932;11.592;2022-12-24T08:37:55;11.90;76.90
20568;DHT22;10442;49.932;11.592;2022-12-24T08:40:23;11.90;77.00
20568;DHT22;10442;49.932;11.592;2022-12-24T08:42:51;12.00;77.20
20568;DHT22;10442;49.932;11.592;2022-12-24T08:45:18;12.00;77.10
20568;DHT22;10442;49.932;11.592;2022-12-24T08:47:46;12.00;77.00
20568;DHT22;10442;49.932;11.592;2022-12-24T08:50:13;12.10;77.00
20568;DHT22;10442;49.932;11.592;2022-12-24T08:52:41;12.10;77.00
20568;DHT22;10442;49.932;11.592;2022-12-24T08:55:09;12.10;76.90
20568;DHT22;10442;49.932;11.592;2022-12-24T08:57:36;12.10;76.70
20568;DHT22;10442;49.932;11.592;2022-12-24T09:00:05;12.10;76.70
20568;DHT22;10442;49.932;11.592;2022-12-24T09:02:33;12.10;76.50
20568;DHT22;10442;49.932;11.592;2022-12-24T09:05:01;12.10;76.60
20568;DHT22;10442;49.932;11.592;2022-12-24T09:07:29;12.20;76.60
20568;DHT22;10442;49.932;11.592;2022-12-24T09:09:56;12.20;76.60
20568;DHT22;10442;49.932;11.592;2022-12-24T09:12:24;12.20;76.50
20568;DHT22;10442;49.932;11.592;2022-12-24T09:14:51;12.20;76.60
20568;DHT22;10442;49.932;11.592;2022-12-24T09:17:27;12.20;76.70
20568;DHT22;10442;49.932;11.592;2022-12-24T09:19:55;12.20;76.70
20568;DHT22;10442;49.932;11.592;2022-12-24T09:22:23;12.20;76.70
20568;DHT22;10442;49.932;11.592;2022-12-24T09:24:52;12.20;76.80
20568;DHT22;10442;49.932;11.592;2022-12-24T09:27:20;12.20;76.80
20568;DHT22;10442;49.932;11.592;2022-12-24T09:29:47;12.20;76.90
20568;DHT22;10442;49.932;11.592;2022-12-24T09:32:15;12.20;76.90
20568;DHT22;10442;49.932;11.592;2022-12-24T09:34:42;12.20;76.90
20568;DHT22;10442;49.932;11.592;2022-12-24T09:37:10;12.20;77.10
20568;DHT22;10442;49.932;11.592;2022-12-24T09:39:37;12.30;77.10
20568;DHT22;10442;49.932;11.592;2022-12-24T09:42:41;12.30;77.30
20568;DHT22;10442;49.932;11.592;2022-12-24T09:45:34;12.30;77.40
20568;DHT22;10442;49.932;11.592;2022-12-24T09:48:17;12.30;77.50
20568;DHT22;10442;49.932;11.592;2022-12-24T09:50:52;12.30;77.60
20568;DHT22;10442;49.932;11.592;2022-12-24T09:53:28;12.30;77.70
20568;DHT22;10442;49.932;11.592;2022-12-24T09:56:04;12.30;77.80
20568;DHT22;10442;49.932;11.592;2022-12-24T09:58:55;12.30;77.80
20568;DHT22;10442;49.932;11.592;2022-12-24T10:01:24;12.30;77.90
20568;DHT22;10442;49.932;11.592;2022-12-24T10:04:19;12.40;77.90
20568;DHT22;10442;49.932;11.592;2022-12-24T10:06:52;12.40;77.90
20568;DHT22;10442;49.932;11.592;2022-12-24T10:09:39;12.40;78.00
20568;DHT22;10442;49.932;11.592;2022-12-24T10:15:09;12.50;78.30
20568;DHT22;10442;49.932;11.592;2022-12-24T10:20:44;12.60;77.70
20568;DHT22;10442;49.932;11.592;2022-12-24T10:26:14;12.70;77.90
20568;DHT22;10442;49.932;11.592;2022-12-24T10:31:34;12.70;78.10
20568;DHT22;10442;49.932;11.592;2022-12-24T10:34:11;12.70;78.20
20568;DHT22;10442;49.932;11.592;2022-12-24T10:36:40;12.70;78.40
20568;DHT22;10442;49.932;11.592;2022-12-24T10:39:17;12.70;78.50
20568;DHT22;10442;49.932;11.592;2022-12-24T10:41:47;12.70;78.70
20568;DHT22;10442;49.932;11.592;2022-12-24T10:44:18;12.70;78.70
20568;DHT22;10442;49.932;11.592;2022-12-24T10:46:47;12.60;78.80
20568;DHT22;10442;49.932;11.592;2022-12-24T10:49:36;12.70;79.00
20568;DHT22;10442;49.932;11.592;2022-12-24T10:52:13;12.70;79.40
20568;DHT22;10442;49.932;11.592;2022-12-24T10:57:34;12.70;79.50
20568;DHT22;10442;49.932;11.592;2022-12-24T11:00:02;12.70;79.40
20568;DHT22;10442;49.932;11.592;2022-12-24T11:05:00;12.70;79.50
20568;DHT22;10442;49.932;11.592;2022-12-24T11:07:29;12.70;79.60
20568;DHT22;10442;49.932;11.592;2022-12-24T11:09:59;12.70;80.30
20568;DHT22;10442;49.932;11.592;2022-12-24T11:12:39;12.70;79.60
20568;DHT22;10442;49.932;11.592;2022-12-24T11:15:33;12.70;79.60
20568;DHT22;10442;49.932;11.592;2022-12-24T11:18:11;12.60;79.40
20568;DHT22;10442;49.932;11.592;2022-12-24T11:20:40;12.60;79.50
20568;DHT22;10442;49.932;11.592;2022-12-24T11:23:16;12.60;79.60
20568;DHT22;10442;49.932;11.592;2022-12-24T11:25:49;12.60;79.80
20568;DHT22;10442;49.932;11.592;2022-12-24T11:28:28;12.60;80.00
20568;DHT22;10442;49.932;11.592;2022-12-24T11:33:28;12.60;80.00
20568;DHT22;10442;49.932;11.592;2022-12-24T11:36:05;12.60;80.10
20568;DHT22;10442;49.932;11.592;2022-12-24T11:38:34;12.60;80.40
20568;DHT22;10442;49.932;11.592;2022-12-24T11:41:08;12.70;80.70
20568;DHT22;10442;49.932;11.592;2022-12-24T11:43:41;12.70;80.80
20568;DHT22;10442;49.932;11.592;2022-12-24T11:46:16;12.80;80.80
20568;DHT22;10442;49.932;11.592;2022-12-24T11:48:45;12.80;80.90
20568;DHT22;10442;49.932;11.592;2022-12-24T11:51:39;12.80;80.90
20568;DHT22;10442;49.932;11.592;2022-12-24T11:54:16;12.90;81.00
20568;DHT22;10442;49.932;11.592;2022-12-24T11:56:57;13.00;81.00
20568;DHT22;10442;49.932;11.592;2022-12-24T11:59:37;13.00;81.00
20568;DHT22;10442;49.932;11.592;2022-12-24T12:02:32;13.10;80.90
20568;DHT22;10442;49.932;11.592;2022-12-24T12:05:17;13.20;80.90
20568;DHT22;10442;49.932;11.592;2022-12-24T12:07:49;13.20;81.00
20568;DHT22;10442;49.932;11.592;2022-12-24T12:10:27;13.30;80.90
20568;DHT22;10442;49.932;11.592;2022-12-24T12:13:02;13.40;80.80
20568;DHT22;10442;49.932;11.592;2022-12-24T12:15:46;13.40;80.70
20568;DHT22;10442;49.932;11.592;2022-12-24T12:18:19;13.50;80.50
20568;DHT22;10442;49.932;11.592;2022-12-24T12:20:51;13.60;80.20
20568;DHT22;10442;49.932;11.592;2022-12-24T12:23:32;13.60;79.70
20568;DHT22;10442;49.932;11.592;2022-12-24T12:26:09;13.60;79.20
20568;DHT22;10442;49.932;11.592;2022-12-24T12:31:35;13.50;78.70
20568;DHT22;10442;49.932;11.592;2022-12-24T12:36:46;13.40;78.50
20568;DHT22;10442;49.932;11.592;2022-12-24T12:39:14;13.40;78.70
20568;DHT22;10442;49.932;11.592;2022-12-24T12:44:15;13.30;78.80
20568;DHT22;10442;49.932;11.592;2022-12-24T12:55:59;13.20;79.50
20568;DHT22;10442;49.932;11.592;2022-12-24T13:10:30;13.20;79.30
20568;DHT22;10442;49.932;11.592;2022-12-24T13:13:29;13.10;79.90
20568;DHT22;10442;49.932;11.592;2022-12-24T13:21:45;13.10;79.00
20568;DHT22;10442;49.932;11.592;2022-12-24T13:24:21;13.00;79.00
20568;DHT22;10442;49.932;11.592;2022-12-24T13:29:52;13.00;78.70
20568;DHT22;10442;49.932;11.592;2022-12-24T13:34:56;12.90;78.90
20568;DHT22;10442;49.932;11.592;2022-12-24T13:42:49;12.80;78.90
20568;DHT22;10442;49.932;11.592;2022-12-24T13:53:43;12.60;78.40
20568;DHT22;10442;49.932;11.592;2022-12-24T13:58:48;12.50;78.60
20568;DHT22;10442;49.932;11.592;2022-12-24T14:01:22;12.40;78.70
20568;DHT22;10442;49.932;11.592;2022-12-24T14:04:01;12.30;78.90
20568;DHT22;10442;49.932;11.592;2022-12-24T14:06:40;12.40;79.10
20568;DHT22;10442;49.932;11.592;2022-12-24T14:09:14;12.30;79.10
20568;DHT22;10442;49.932;11.592;2022-12-24T14:14:42;12.20;79.30
20568;DHT22;10442;49.932;11.592;2022-12-24T14:17:19;12.20;79.20
20568;DHT22;10442;49.932;11.592;2022-12-24T14:19:56;12.10;79.10
20568;DHT22;10442;49.932;11.592;2022-12-24T14:22:35;12.10;79.10
20568;DHT22;10442;49.932;11.592;2022-12-24T14:27:44;12.00;79.10
20568;DHT22;10442;49.932;11.592;2022-12-24T14:30:21;11.90;79.30
20568;DHT22;10442;49.932;11.592;2022-12-24T14:32:50;11.90;79.30
20568;DHT22;10442;49.932;11.592;2022-12-24T14:35:19;11.80;79.30
20568;DHT22;10442;49.932;11.592;2022-12-24T14:38:02;11.80;79.40
20568;DHT22;10442;49.932;11.592;2022-12-24T14:40:34;11.70;79.50
20568;DHT22;10442;49.932;11.592;2022-12-24T14:43:10;11.70;79.70
20568;DHT22;10442;49.932;11.592;2022-12-24T14:45:51;11.70;79.70
20568;DHT22;10442;49.932;11.592;2022-12-24T14:48:41;11.60;79.90
20568;DHT22;10442;49.932;11.592;2022-12-24T14:54:14;11.50;80.00
20568;DHT22;10442;49.932;11.592;2022-12-24T14:56:43;11.50;80.20
20568;DHT22;10442;49.932;11.592;2022-12-24T14:59:16;11.40;80.00
20568;DHT22;10442;49.932;11.592;2022-12-24T15:01:44;11.40;80.20
20568;DHT22;10442;49.932;11.592;2022-12-24T15:04:16;11.30;80.20
20568;DHT22;10442;49.932;11.592;2022-12-24T15:06:50;11.30;80.40
20568;DHT22;10442;49.932;11.592;2022-12-24T15:11:50;11.20;80.30
20568;DHT22;10442;49.932;11.592;2022-12-24T15:14:20;11.10;80.20
20568;DHT22;10442;49.932;11.592;2022-12-24T15:16:56;11.10;80.30
20568;DHT22;10442;49.932;11.592;2022-12-24T15:19:32;11.10;80.40
20568;DHT22;10442;49.932;11.592;2022-12-24T15:22:01;11.00;80.50
20568;DHT22;10442;49.932;11.592;2022-12-24T15:24:32;11.00;80.60
20568;DHT22;10442;49.932;11.592;2022-12-24T15:27:10;10.90;80.70
20568;DHT22;10442;49.932;11.592;2022-12-24T15:29:43;10.90;80.70
20568;DHT22;10442;49.932;11.592;2022-12-24T15:32:13;10.90;80.80
20568;DHT22;10442;49.932;11.592;2022-12-24T15:34:43;10.90;80.70
20568;DHT22;10442;49.932;11.592;2022-12-24T15:37:25;10.90;80.60
20568;DHT22;10442;49.932;11.592;2022-12-24T15:42:32;10.80;80.00
20568;DHT22;10442;49.932;11.592;2022-12-24T15:47:42;10.70;80.30
20568;DHT22;10442;49.932;11.592;2022-12-24T15:50:30;10.70;80.50
20568;DHT22;10442;49.932;11.592;2022-12-24T15:53:12;10.60;80.90
20568;DHT22;10442;49.932;11.592;2022-12-24T15:56:08;10.60;81.10
20568;DHT22;10442;49.932;11.592;2022-12-24T15:58:41;10.60;81.00
20568;DHT22;10442;49.932;11.592;2022-12-24T16:03:54;10.60;80.20
20568;DHT22;10442;49.932;11.592;2022-12-24T16:06:22;10.60;80.80
20568;DHT22;10442;49.932;11.592;2022-12-24T16:08:50;10.50;80.70
20568;DHT22;10442;49.932;11.592;2022-12-24T16:11:23;10.50;80.50
20568;DHT22;10442;49.932;11.592;2022-12-24T16:14:01;10.50;80.60
20568;DHT22;10442;49.932;11.592;2022-12-24T16:16:36;10.50;80.40
20568;DHT22;10442;49.932;11.592;2022-12-24T16:19:05;10.40;80.30
20568;DHT22;10442;49.932;11.592;2022-12-24T16:24:13;10.40;80.40
20568;DHT22;10442;49.932;11.592;2022-12-24T16:26:41;10.30;80.50
20568;DHT22;10442;49.932;11.592;2022-12-24T16:29:10;10.40;80.70
20568;DHT22;10442;49.932;11.592;2022-12-24T16:31:43;10.40;80.90
20568;DHT22;10442;49.932;11.592;2022-12-24T16:34:13;10.40;81.30
20568;DHT22;10442;49.932;11.592;2022-12-24T16:36:42;10.40;81.50
20568;DHT22;10442;49.932;11.592;2022-12-24T16:39:48;10.40;81.60
20568;DHT22;10442;49.932;11.592;2022-12-24T16:42:07;10.40;81.70
20568;DHT22;10442;49.932;11.592;2022-12-24T16:44:53;10.50;81.80
20568;DHT22;10442;49.932;11.592;2022-12-24T16:47:30;10.60;81.80
20568;DHT22;10442;49.932;11.592;2022-12-24T16:50:07;10.60;81.60
20568;DHT22;10442;49.932;11.592;2022-12-24T16:52:34;10.60;81.20
20568;DHT22;10442;49.932;11.592;2022-12-24T16:55:02;10.60;81.00
20568;DHT22;10442;49.932;11.592;2022-12-24T16:57:32;10.60;80.80
20568;DHT22;10442;49.932;11.592;2022-12-24T17:00:02;10.60;80.60
20568;DHT22;10442;49.932;11.592;2022-12-24T17:02:30;10.50;80.40
20568;DHT22;10442;49.932;11.592;2022-12-24T17:04:57;10.50;80.30
20568;DHT22;10442;49.932;11.592;2022-12-24T17:07:25;10.50;80.40
20568;DHT22;10442;49.932;11.592;2022-12-24T17:09:52;10.40;80.50
20568;DHT22;10442;49.932;11.592;2022-12-24T17:12:20;10.50;80.60
20568;DHT22;10442;49.932;11.592;2022-12-24T17:14:47;10.40;80.60
20568;DHT22;10442;49.932;11.592;2022-12-24T17:17:26;10.40;80.40
20568;DHT22;10442;49.932;11.592;2022-12-24T17:19:55;10.30;80.30
20568;DHT22;10442;49.932;11.592;2022-12-24T17:22:23;10.30;80.20
20568;DHT22;10442;49.932;11.592;2022-12-24T17:24:54;10.20;80.00
20568;DHT22;10442;49.932;11.592;2022-12-24T17:27:21;10.20;80.10
20568;DHT22;10442;49.932;11.592;2022-12-24T17:29:49;10.10;80.20
20568;DHT22;10442;49.932;11.592;2022-12-24T17:32:16;10.10;80.10
20568;DHT22;10442;49.932;11.592;2022-12-24T17:34:44;10.00;80.00
20568;DHT22;10442;49.932;11.592;2022-12-24T17:37:11;9.90;80.00